Kezdőlap
METAR-TAF:

METAR-TAF

Repülőterek :

Harbin, Kína

földrajzi szélesség: 45-45N, földrajzi hosszúság: 126-46E, magasság: 143 m

Jelenlegi meteorológiai megfigyelések

A jelentés 24 perccel ezelõtt készült, 19:00 UTC
Dél-délkeleti szél 4 kt
Hőmérséklet 2°C
Páratartalom 69%
Légköri nyomás 1021 hPa
Látótávolság 10 km, vagy több
felhőtlen 1500 m magasságban, és nincs gomolyfelhõ

METAR: ZYHB 201900Z 16002MPS CAVOK 02/M03 Q1021 NOSIG

Idő: 03:24 (19:24 UTC)

Előrejelzés

A jelentés 4 órával és 23 perccel ezelõtt készült, 15:01 UTC
Az előrejelzés 20-én 18 óra UTC és 21-én 18 óra UTC között érvényes
Dél-délnyugati szél 6 kt
Látótávolság: 5000 m
Kevés felhő 3300 lábon
füst
20-én 20 óra UTC és 20-én 24 óra UTC között ideiglenes
Látótávolság: 1500 m
füst

TAF: ZYHB 201501Z 2018/2118 20003MPS 5000 FU FEW033 TX17/2106Z TNM01/21Z TEMPO 2020/2024 1500 FU

Meteorológiai megfigyelések és előrejelzések több, mint 4000 repülőtéren (METAR és TAF jelentéseket).

A térképen piros és sárga pontok jelzik az elérhető meteorológiai állomásokat.

Mozgassa az egeret a pont fölött, hogy megjelenjen az állomás neve.

Azután kattintson az időjárási megfigyelések és előrejelzések megtekintéséhez.

A térkép megváltoztatása: kattintson a fekete keresztel jelölt zöld gombra ráközelítéshez, a vonallal jelölt zöld gombra távolításhoz, vagy a zöld nyilakra a szomszédos térképek eléréséhez.


METAR-TAF: